Time;durP1;ratioP1;P1;durP2;ratioP2;P2;SDS_P1;SDS_P2;PMS_P1;PMS_P2;Temp;Humidity;BMP_temperature;BMP_pressure;BME280_temperature;BME280_humidity;BME280_pressure;Samples;Min_cycle;Max_cycle;Signal;HPM_P1;HPM_P2
2023/09/29 00:00:25;;;;;;;;;;;;;;;24.73;64.16;101526.38;5005372;28;19918;-87
2023/09/29 00:02:53;;;;;;;;;;;;;;;24.77;63.96;101520.16;4991063;28;19966;-87
2023/09/29 00:05:18;;;;;;;;;;;;;;;24.71;64.35;101508.56;4998001;28;19917;-86
2023/09/29 00:07:44;;;;;;;;;;;;;;;24.71;63.87;101517.44;4984511;28;20473;-86
2023/09/29 00:10:20;;;;;;;;;;;;;;;24.70;64.11;101506.75;5026864;28;19917;-86
2023/09/29 00:12:46;;;;;;;;;;;;;;;24.72;64.14;101511.25;5003190;28;19991;-86
2023/09/29 00:15:11;;;;;;;;;;;;;;;24.69;63.95;101508.53;4979922;28;20350;-84
2023/09/29 00:17:37;;;;;;;;;;;;;;;24.71;64.08;101511.22;4987894;28;20353;-85
2023/09/29 00:22:47;;;;;;;;;;;;;;;24.69;64.14;101507.66;4988490;28;20417;-86
2023/09/29 00:25:12;;;;;;;;;;;;;;;24.66;64.31;101505.84;4987416;28;19917;-87
2023/09/29 00:27:38;;;;;;;;;;;;;;;24.63;63.98;101513.81;5013745;28;19917;-85
2023/09/29 00:30:05;;;;;;;;;;;;;;;24.61;64.09;101510.25;4992950;28;19997;-85
2023/09/29 00:32:30;;;;;;;;;;;;;;;24.61;64.04;101507.56;5021833;28;19933;-84
2023/09/29 00:34:57;;;;;;;;;;;;;;;24.58;64.07;101504.88;5030567;28;19924;-85
2023/09/29 00:37:23;;;;;;;;;;;;;;;24.61;64.08;101512.03;5013350;28;19913;-86
2023/09/29 00:39:48;;;;;;;;;;;;;;;24.61;63.71;101506.69;4997704;28;19922;-86
2023/09/29 00:42:13;;;;;;;;;;;;;;;24.62;63.67;101514.72;4994097;28;19964;-85
2023/09/29 00:44:39;;;;;;;;;;;;;;;24.62;63.49;101503.13;5014957;28;19921;-86
2023/09/29 00:47:05;;;;;;;;;;;;;;;24.60;63.69;101508.47;5000284;28;19926;-87
2023/09/29 00:49:30;;;;;;;;;;;;;;;24.56;63.23;101502.19;4993821;28;19925;-85
2023/09/29 00:51:59;;;;;;;;;;;;;;;24.61;63.32;101504.91;4989248;28;19927;-86
2023/09/29 00:54:27;;;;;;;;;;;;;;;24.54;63.53;101498.63;4994914;28;19949;-86
2023/09/29 00:56:52;;;;;;;;;;;;;;;24.53;63.70;101490.59;4982701;28;19929;-85
2023/09/29 00:59:17;;;;;;;;;;;;;;;24.53;63.70;101493.25;5011993;28;19918;-85
2023/09/29 01:01:43;;;;;;;;;;;;;;;24.53;63.65;101493.25;4991929;28;19922;-84
2023/09/29 01:04:10;;;;;;;;;;;;;;;24.51;63.94;101490.59;5007224;28;19996;-87
2023/09/29 01:06:35;;;;;;;;;;;;;;;24.54;63.61;101495.06;5009223;28;19918;-87
2023/09/29 01:09:01;;;;;;;;;;;;;;;24.54;63.20;101490.63;4999039;28;20076;-85
2023/09/29 01:11:26;;;;;;;;;;;;;;;24.52;63.60;101495.03;4983572;28;19929;-84
2023/09/29 01:13:52;;;;;;;;;;;;;;;24.52;63.61;101488.81;5008675;28;19922;-84
2023/09/29 01:16:17;;;;;;;;;;;;;;;24.51;63.62;101487.94;5007009;28;19983;-84
2023/09/29 01:18:43;;;;;;;;;;;;;;;24.53;63.23;101491.50;5009318;28;19921;-86
2023/09/29 01:21:08;;;;;;;;;;;;;;;24.51;63.59;101495.03;4998796;28;19928;-84
2023/09/29 01:23:34;;;;;;;;;;;;;;;24.50;62.91;101494.13;4993130;28;19918;-86
2023/09/29 01:26:56;;;;;;;;;;;;;;;24.47;63.87;101501.19;4980602;28;19921;-85
2023/09/29 01:29:23;;;;;;;;;;;;;;;24.51;63.37;101503.03;4951383;28;19919;-85
2023/09/29 01:31:49;;;;;;;;;;;;;;;24.43;63.31;101505.63;4953581;28;19929;-85
2023/09/29 01:34:15;;;;;;;;;;;;;;;24.44;63.51;101495.84;4980568;28;20279;-84
2023/09/29 01:36:40;;;;;;;;;;;;;;;24.44;63.55;101501.16;4995690;28;20386;-85
2023/09/29 01:39:06;;;;;;;;;;;;;;;24.46;63.28;101505.63;4995121;28;19918;-85
2023/09/29 01:41:32;;;;;;;;;;;;;;;24.44;63.14;101499.38;5000856;28;19964;-85
2023/09/29 01:43:58;;;;;;;;;;;;;;;24.46;62.96;101502.09;4994566;28;19925;-85
2023/09/29 01:46:24;;;;;;;;;;;;;;;24.45;63.45;101510.97;5013700;28;19932;-84
2023/09/29 01:48:50;;;;;;;;;;;;;;;24.43;62.89;101510.09;5014560;28;19928;-85
2023/09/29 01:51:17;;;;;;;;;;;;;;;24.38;63.42;101508.25;4995585;28;19922;-85
2023/09/29 01:53:42;;;;;;;;;;;;;;;24.38;63.16;101512.69;5005086;28;19930;-86
2023/09/29 01:56:08;;;;;;;;;;;;;;;24.37;63.56;101510.91;5018849;28;19992;-85
2023/09/29 01:58:36;;;;;;;;;;;;;;;24.39;63.07;101515.38;4993674;28;19917;-85
2023/09/29 02:01:02;;;;;;;;;;;;;;;24.39;63.30;101520.72;5015208;28;20016;-85
2023/09/29 02:03:27;;;;;;;;;;;;;;;24.39;62.79;101522.50;4993859;28;20017;-85
2023/09/29 02:05:53;;;;;;;;;;;;;;;24.38;62.87;101516.28;5016080;28;19928;-84
2023/09/29 02:08:19;;;;;;;;;;;;;;;24.38;63.17;101524.28;4982228;28;19956;-85
2023/09/29 02:10:49;;;;;;;;;;;;;;;24.36;62.86;101514.44;5023913;28;19928;-85
2023/09/29 02:13:15;;;;;;;;;;;;;;;24.34;63.04;101511.78;4995870;28;19996;-85
2023/09/29 02:15:41;;;;;;;;;;;;;;;24.36;62.59;101509.09;5012140;28;19918;-86
2023/09/29 02:18:09;;;;;;;;;;;;;;;24.34;62.67;101510.88;5001704;28;20083;-85
2023/09/29 02:20:36;;;;;;;;;;;;;;;24.32;62.83;101508.19;5020848;28;19917;-84
2023/09/29 02:23:02;;;;;;;;;;;;;;;24.33;62.48;101509.09;5024091;28;19921;-84
2023/09/29 02:25:28;;;;;;;;;;;;;;;24.31;62.81;101506.41;5001665;28;19928;-85
2023/09/29 02:27:55;;;;;;;;;;;;;;;24.32;63.06;101509.94;4998213;28;19929;-86
2023/09/29 02:30:21;;;;;;;;;;;;;;;24.32;63.14;101509.94;4995592;28;19927;-85
2023/09/29 02:32:46;;;;;;;;;;;;;;;24.30;62.64;101512.63;4992776;28;20076;-85
2023/09/29 02:35:12;;;;;;;;;;;;;;;24.32;62.15;101513.53;5002103;28;19975;-85
2023/09/29 02:37:38;;;;;;;;;;;;;;;24.32;62.99;101510.88;4995006;28;19918;-85
2023/09/29 02:40:07;;;;;;;;;;;;;;;24.29;63.11;101508.16;5027231;28;19948;-85
2023/09/29 02:42:33;;;;;;;;;;;;;;;24.28;62.71;101503.72;4981260;28;20330;-85
2023/09/29 02:44:58;;;;;;;;;;;;;;;24.29;63.11;101505.50;4992636;28;20028;-85
2023/09/29 02:47:24;;;;;;;;;;;;;;;24.29;62.84;101509.94;4994990;28;19968;-85
2023/09/29 02:49:49;;;;;;;;;;;;;;;24.28;63.33;101502.81;5019665;28;19953;-85
2023/09/29 02:52:15;;;;;;;;;;;;;;;24.25;63.07;101500.09;5031197;28;19925;-85
2023/09/29 02:54:41;;;;;;;;;;;;;;;24.26;63.04;101501.91;5022769;28;20301;-84
2023/09/29 02:57:07;;;;;;;;;;;;;;;24.28;62.70;101497.50;5027397;28;20463;-84
2023/09/29 02:59:33;;;;;;;;;;;;;;;24.29;62.82;101496.59;5030910;28;19955;-85
2023/09/29 03:02:00;;;;;;;;;;;;;;;24.29;62.68;101501.94;5031222;28;20024;-84
2023/09/29 03:04:26;;;;;;;;;;;;;;;24.27;63.17;101501.91;5024308;28;19925;-85
2023/09/29 03:06:52;;;;;;;;;;;;;;;24.24;62.85;101501.91;4994507;28;20015;-86
2023/09/29 03:09:19;;;;;;;;;;;;;;;24.26;63.35;101497.47;5023529;28;19963;-85
2023/09/29 03:11:45;;;;;;;;;;;;;;;24.26;63.24;101493.91;5027919;28;19929;-85
2023/09/29 03:14:11;;;;;;;;;;;;;;;24.21;63.07;101499.19;5027913;28;19921;-85
2023/09/29 03:16:37;;;;;;;;;;;;;;;24.20;62.89;101501.84;5031165;28;19921;-85
2023/09/29 03:19:03;;;;;;;;;;;;;;;24.18;63.16;101504.50;5017814;28;19928;-85
2023/09/29 03:21:28;;;;;;;;;;;;;;;24.20;63.14;101501.84;5033787;28;19928;-85
2023/09/29 03:23:54;;;;;;;;;;;;;;;24.19;63.25;101503.59;5022672;28;20039;-85
2023/09/29 03:26:22;;;;;;;;;;;;;;;24.17;63.31;101505.38;5029053;28;19925;-85
2023/09/29 03:28:49;;;;;;;;;;;;;;;24.18;63.27;101507.16;5030625;28;20394;-84
2023/09/29 03:31:15;;;;;;;;;;;;;;;24.14;63.17;101510.69;5026482;28;19929;-85
2023/09/29 03:33:42;;;;;;;;;;;;;;;24.16;63.13;101512.47;5013140;28;20318;-85
2023/09/29 03:36:08;;;;;;;;;;;;;;;24.18;63.28;101515.19;5021984;28;19917;-85
2023/09/29 03:38:33;;;;;;;;;;;;;;;24.15;63.11;101512.47;5022404;28;19933;-86
2023/09/29 03:41:06;;;;;;;;;;;;;;;24.00;63.25;101493.63;5005275;28;19921;-86
2023/09/29 03:43:32;;;;;;;;;;;;;;;24.13;63.33;101515.13;5000862;28;19922;-84
2023/09/29 03:45:57;;;;;;;;;;;;;;;24.12;63.27;101518.66;5025667;28;19929;-85
2023/09/29 03:48:25;;;;;;;;;;;;;;;24.08;62.95;101510.63;5009144;28;19921;-86
2023/09/29 03:50:50;;;;;;;;;;;;;;;24.10;63.16;101514.19;5025058;28;20402;-85
2023/09/29 03:53:18;;;;;;;;;;;;;;;24.06;63.26;101502.59;5030907;28;20015;-85
2023/09/29 03:55:47;;;;;;;;;;;;;;;24.03;63.55;101507.03;5026608;28;19979;-86
2023/09/29 03:58:13;;;;;;;;;;;;;;;24.04;62.88;101511.47;5010805;28;19964;-85
2023/09/29 04:00:39;;;;;;;;;;;;;;;24.07;63.38;101515.06;5009577;28;20394;-85
2023/09/29 04:03:08;;;;;;;;;;;;;;;24.04;63.34;101515.03;5009698;28;19932;-86
2023/09/29 04:05:33;;;;;;;;;;;;;;;24.05;62.96;101514.16;5023862;28;19982;-85
2023/09/29 04:07:59;;;;;;;;;;;;;;;24.07;62.82;101522.19;5010925;28;19917;-85
2023/09/29 04:10:24;;;;;;;;;;;;;;;24.05;63.11;101514.16;5026078;28;19927;-85
2023/09/29 04:12:50;;;;;;;;;;;;;;;24.09;63.26;101520.44;5028958;28;20364;-87
2023/09/29 04:15:15;;;;;;;;;;;;;;;24.03;63.13;101518.59;5021852;28;19932;-84
2023/09/29 04:17:41;;;;;;;;;;;;;;;24.03;63.24;101520.38;5032060;28;20009;-84
2023/09/29 04:20:07;;;;;;;;;;;;;;;24.05;63.34;101531.94;5010776;28;19924;-85
2023/09/29 04:22:33;;;;;;;;;;;;;;;23.99;63.37;101524.75;5028921;28;19917;-85
2023/09/29 04:24:58;;;;;;;;;;;;;;;24.04;63.38;101527.47;5008699;28;19925;-85
2023/09/29 04:27:24;;;;;;;;;;;;;;;24.01;62.44;101524.78;5010603;28;19924;-87
2023/09/29 04:29:53;;;;;;;;;;;;;;;24.00;63.16;101523.88;5020170;28;19921;-86
2023/09/29 04:32:19;;;;;;;;;;;;;;;23.97;63.50;101522.06;5020121;28;19924;-86
2023/09/29 04:34:44;;;;;;;;;;;;;;;24.00;63.60;101539.00;5028208;28;19917;-87
2023/09/29 04:37:10;;;;;;;;;;;;;;;24.00;63.30;101526.53;4995068;28;19924;-87
2023/09/29 04:39:35;;;;;;;;;;;;;;;24.00;63.64;101531.88;5008755;28;20350;-87
2023/09/29 04:42:02;;;;;;;;;;;;;;;23.95;63.75;101521.16;5011747;28;19925;-86
2023/09/29 04:44:28;;;;;;;;;;;;;;;23.94;63.57;101527.38;5010271;28;19925;-84
2023/09/29 04:46:53;;;;;;;;;;;;;;;23.93;63.15;101525.59;5017753;28;19920;-86
2023/09/29 04:49:18;;;;;;;;;;;;;;;23.95;63.20;101526.50;5000555;28;20008;-87
2023/09/29 04:51:44;;;;;;;;;;;;;;;23.94;63.12;101526.50;4973816;28;19986;-87
2023/09/29 04:54:10;;;;;;;;;;;;;;;23.96;63.10;101530.03;4986461;28;19975;-87
2023/09/29 04:56:35;;;;;;;;;;;;;;;23.92;63.57;101534.47;4998006;28;19926;-83
2023/09/29 04:59:01;;;;;;;;;;;;;;;23.96;63.51;101535.38;5008087;28;20000;-84
2023/09/29 05:01:27;;;;;;;;;;;;;;;23.92;63.33;101530.94;4991961;28;19928;-85
2023/09/29 05:03:52;;;;;;;;;;;;;;;23.89;63.73;101531.75;4986129;28;19921;-84
2023/09/29 05:06:18;;;;;;;;;;;;;;;23.90;63.64;101525.56;4991716;28;19917;-89
2023/09/29 05:08:44;;;;;;;;;;;;;;;23.92;63.57;101521.16;4994711;28;19932;-87
2023/09/29 05:11:19;;;;;;;;;;;;;;;23.92;63.61;101522.91;4991689;28;19980;-84
2023/09/29 05:13:45;;;;;;;;;;;;;;;23.87;63.58;101522.84;5009094;28;19973;-84
2023/09/29 05:16:10;;;;;;;;;;;;;;;23.92;63.59;101513.13;5010318;28;19917;-84
2023/09/29 05:18:36;;;;;;;;;;;;;;;23.83;63.64;101518.34;5010584;28;19917;-83
2023/09/29 05:21:01;;;;;;;;;;;;;;;23.82;63.71;101515.69;5013169;28;19917;-84
2023/09/29 05:23:26;;;;;;;;;;;;;;;23.80;63.47;101514.78;4992975;28;19955;-82
2023/09/29 05:25:52;;;;;;;;;;;;;;;23.71;63.43;101507.53;4996338;28;19922;-81
2023/09/29 05:28:18;;;;;;;;;;;;;;;23.60;63.76;101517.16;4990468;28;19971;-80
2023/09/29 05:30:52;;;;;;;;;;;;;;;23.67;63.41;101509.25;5015532;28;19972;-81
2023/09/29 05:33:17;;;;;;;;;;;;;;;23.58;63.92;101509.16;5013958;28;19917;-82
2023/09/29 05:35:43;;;;;;;;;;;;;;;23.56;63.68;101508.25;5015263;28;19925;-82
2023/09/29 05:38:08;;;;;;;;;;;;;;;23.49;63.74;101515.25;5011137;28;19921;-83
2023/09/29 05:40:33;;;;;;;;;;;;;;;23.48;64.14;101525.91;5016472;28;20249;-82
2023/09/29 05:42:59;;;;;;;;;;;;;;;23.49;63.68;101528.56;5014476;28;19917;-81
2023/09/29 05:45:24;;;;;;;;;;;;;;;23.61;63.46;101538.50;5011895;28;19991;-81
2023/09/29 05:47:51;;;;;;;;;;;;;;;23.65;63.30;101543.00;5009263;28;20345;-81
2023/09/29 05:50:17;;;;;;;;;;;;;;;23.71;63.72;101539.53;5007881;28;19929;-81
2023/09/29 05:52:42;;;;;;;;;;;;;;;23.74;63.54;101540.44;5013042;28;19913;-83
2023/09/29 05:55:08;;;;;;;;;;;;;;;23.78;63.93;101541.41;4999536;28;19940;-82
2023/09/29 05:57:34;;;;;;;;;;;;;;;23.76;63.72;101541.38;5007321;28;19924;-82
2023/09/29 05:59:59;;;;;;;;;;;;;;;23.81;63.41;101538.78;5007488;28;20004;-81
2023/09/29 06:02:25;;;;;;;;;;;;;;;23.81;63.71;101537.88;5013018;28;19917;-82
2023/09/29 06:04:50;;;;;;;;;;;;;;;23.82;63.70;101534.38;5009199;28;19914;-82
2023/09/29 06:07:15;;;;;;;;;;;;;;;23.80;63.56;101539.66;5013793;28;19925;-82
2023/09/29 06:09:41;;;;;;;;;;;;;;;23.81;63.93;101548.56;5012849;28;19993;-81
2023/09/29 06:12:06;;;;;;;;;;;;;;;23.80;64.25;101541.44;5013701;28;19936;-81
2023/09/29 06:14:32;;;;;;;;;;;;;;;23.89;64.00;101555.78;5000448;28;19913;-82
2023/09/29 06:16:58;;;;;;;;;;;;;;;23.82;63.72;101551.25;5013393;28;20283;-82
2023/09/29 06:19:24;;;;;;;;;;;;;;;23.78;64.34;101541.41;5002535;28;19924;-81
2023/09/29 06:21:49;;;;;;;;;;;;;;;23.79;64.29;101545.88;5007015;28;19918;-82
2023/09/29 06:24:15;;;;;;;;;;;;;;;23.80;63.90;101547.66;4994055;28;19924;-83
2023/09/29 06:26:40;;;;;;;;;;;;;;;23.80;64.17;101549.44;4993780;28;20366;-82
2023/09/29 06:29:06;;;;;;;;;;;;;;;23.80;64.09;101544.13;5008992;28;19977;-82
2023/09/29 06:31:31;;;;;;;;;;;;;;;23.78;64.25;101544.97;5011537;28;20024;-82
2023/09/29 06:33:57;;;;;;;;;;;;;;;23.81;64.18;101549.44;5011857;28;19913;-82
2023/09/29 06:36:23;;;;;;;;;;;;;;;23.81;64.43;101553.88;5007642;28;19949;-81
2023/09/29 06:38:48;;;;;;;;;;;;;;;23.80;64.46;101557.44;5007493;28;20008;-82
2023/09/29 06:41:13;;;;;;;;;;;;;;;23.80;63.98;101560.13;5010397;28;19921;-82
2023/09/29 06:43:40;;;;;;;;;;;;;;;23.80;64.36;101555.66;5001144;28;19925;-82
2023/09/29 06:46:06;;;;;;;;;;;;;;;23.81;64.35;101553.88;5010126;28;19925;-82
2023/09/29 06:48:31;;;;;;;;;;;;;;;23.80;64.32;101553.00;5012470;28;19922;-82
2023/09/29 06:50:59;;;;;;;;;;;;;;;23.81;64.55;101561.88;5001174;28;20279;-82
2023/09/29 06:53:26;;;;;;;;;;;;;;;23.82;64.17;101561.03;5005792;28;19955;-82
2023/09/29 06:55:52;;;;;;;;;;;;;;;23.85;64.50;101563.72;4999685;28;19917;-82
2023/09/29 06:58:17;;;;;;;;;;;;;;;23.84;64.17;101561.94;4994205;28;19913;-82
2023/09/29 07:00:44;;;;;;;;;;;;;;;23.84;64.20;101568.16;5011802;28;20385;-82
2023/09/29 07:03:12;;;;;;;;;;;;;;;23.84;64.64;101567.28;4999520;28;20424;-81
2023/09/29 07:05:38;;;;;;;;;;;;;;;23.77;64.46;101563.66;5012803;28;19968;-81
2023/09/29 07:08:03;;;;;;;;;;;;;;;23.81;64.80;101561.88;5012242;28;20442;-82
2023/09/29 07:10:29;;;;;;;;;;;;;;;23.73;64.73;101570.66;5012186;28;19921;-83
2023/09/29 07:12:54;;;;;;;;;;;;;;;23.76;64.91;101570.72;5011295;28;19988;-83
2023/09/29 07:15:20;;;;;;;;;;;;;;;23.79;64.57;101569.88;4997899;28;19984;-83
2023/09/29 07:17:45;;;;;;;;;;;;;;;23.70;65.04;101583.06;4993003;28;19929;-83
2023/09/29 07:20:12;;;;;;;;;;;;;;;23.72;64.96;101579.53;5008439;28;19918;-83
2023/09/29 07:22:38;;;;;;;;;;;;;;;23.80;64.76;101578.78;5012198;28;19913;-82
2023/09/29 07:25:03;;;;;;;;;;;;;;;23.78;64.80;101595.66;5011160;28;19920;-81
2023/09/29 07:27:30;;;;;;;;;;;;;;;23.85;64.69;101595.72;5012333;28;20420;-82
2023/09/29 07:29:56;;;;;;;;;;;;;;;23.77;64.92;101595.66;5009228;28;19932;-82
2023/09/29 07:32:21;;;;;;;;;;;;;;;23.67;65.19;101602.59;4982618;28;19913;-82
2023/09/29 07:34:47;;;;;;;;;;;;;;;23.64;65.37;101602.53;5004182;28;19921;-82
2023/09/29 07:37:12;;;;;;;;;;;;;;;23.77;65.00;101614.31;5005085;28;19913;-81
2023/09/29 07:39:38;;;;;;;;;;;;;;;23.63;66.22;101608.75;5011428;28;19920;-81
2023/09/29 07:42:03;;;;;;;;;;;;;;;23.67;65.38;101609.72;4999295;28;19992;-82
2023/09/29 07:44:29;;;;;;;;;;;;;;;23.66;65.00;101622.13;5010304;28;20000;-87
2023/09/29 07:46:54;;;;;;;;;;;;;;;23.63;64.45;101616.75;5010812;28;19941;-82
2023/09/29 07:49:20;;;;;;;;;;;;;;;23.67;64.77;101615.03;5001257;28;19946;-81
2023/09/29 07:51:47;;;;;;;;;;;;;;;23.80;64.58;101619.69;5030586;28;19935;-82
2023/09/29 07:54:12;;;;;;;;;;;;;;;23.80;64.90;101621.47;5008558;28;20379;-82
2023/09/29 07:56:38;;;;;;;;;;;;;;;23.77;64.85;101617.00;5012453;28;19921;-83
2023/09/29 07:59:04;;;;;;;;;;;;;;;23.69;65.57;101613.28;5018569;28;19967;-83
2023/09/29 08:01:30;;;;;;;;;;;;;;;23.64;65.73;101618.53;5026458;28;20000;-82
2023/09/29 08:03:57;;;;;;;;;;;;;;;23.63;65.61;101623.88;5031101;28;19967;-82
2023/09/29 08:06:24;;;;;;;;;;;;;;;23.59;66.17;101617.59;5030102;28;19920;-81
2023/09/29 08:08:50;;;;;;;;;;;;;;;23.57;66.09;101620.22;5018631;28;19913;-82
2023/09/29 08:11:16;;;;;;;;;;;;;;;23.61;66.33;101625.63;5002288;28;20068;-83
2023/09/29 08:13:41;;;;;;;;;;;;;;;23.60;66.11;101627.41;5025225;28;20378;-82
2023/09/29 08:16:07;;;;;;;;;;;;;;;23.58;66.02;101629.16;5025310;28;19913;-82
2023/09/29 08:18:33;;;;;;;;;;;;;;;23.67;65.69;101629.25;5029547;28;19913;-82
2023/09/29 08:20:58;;;;;;;;;;;;;;;23.67;66.40;101626.59;5030846;28;19924;-83
2023/09/29 08:23:23;;;;;;;;;;;;;;;23.63;66.47;101627.44;5026182;28;19945;-81
2023/09/29 08:25:49;;;;;;;;;;;;;;;23.69;66.54;101637.28;5023144;28;19968;-82
2023/09/29 08:28:14;;;;;;;;;;;;;;;23.71;65.35;101635.53;5017603;28;19960;-82
2023/09/29 08:30:40;;;;;;;;;;;;;;;23.69;65.59;101643.50;5030236;28;19971;-82
2023/09/29 08:33:06;;;;;;;;;;;;;;;23.66;66.11;101648.78;5025848;28;19951;-82
2023/09/29 08:35:31;;;;;;;;;;;;;;;23.61;66.36;101642.50;5011358;28;19914;-85
2023/09/29 08:37:57;;;;;;;;;;;;;;;23.61;66.39;101655.84;5021804;28;19921;-85
2023/09/29 08:40:22;;;;;;;;;;;;;;;23.61;66.71;101644.28;5023692;28;20008;-85
2023/09/29 08:42:51;;;;;;;;;;;;;;;23.61;66.52;101649.63;5021791;28;19913;-84
2023/09/29 08:45:19;;;;;;;;;;;;;;;23.61;66.75;101646.94;5033978;28;19917;-85
2023/09/29 08:47:51;;;;;;;;;;;;;;;23.64;67.21;101657.66;5034239;28;20461;-84
2023/09/29 08:50:17;;;;;;;;;;;;;;;23.68;66.87;101651.47;5030712;28;19967;-84
2023/09/29 08:52:44;;;;;;;;;;;;;;;23.64;66.57;101649.66;5033180;28;19945;-85
2023/09/29 08:55:10;;;;;;;;;;;;;;;23.59;67.14;101638.91;5009080;28;19964;-84
2023/09/29 08:57:35;;;;;;;;;;;;;;;23.64;66.57;101638.97;5024959;28;20154;-85
2023/09/29 09:00:01;;;;;;;;;;;;;;;23.64;66.91;101636.31;5008392;28;19960;-85
2023/09/29 09:02:26;;;;;;;;;;;;;;;23.64;66.88;101638.97;5009691;28;19986;-86
2023/09/29 09:04:52;;;;;;;;;;;;;;;23.64;66.77;101637.19;5022349;28;19913;-86
2023/09/29 09:07:18;;;;;;;;;;;;;;;23.65;66.74;101636.34;5042262;28;19917;-85
2023/09/29 09:09:50;;;;;;;;;;;;;;;23.63;66.33;101640.75;5041640;28;19917;-85
2023/09/29 09:12:16;;;;;;;;;;;;;;;23.63;66.91;101632.75;5040876;28;19917;-85
2023/09/29 09:14:41;;;;;;;;;;;;;;;23.67;66.98;101631.03;5018234;28;19913;-85
2023/09/29 09:17:10;;;;;;;;;;;;;;;23.66;66.83;101623.91;5026391;28;19917;-85
2023/09/29 09:19:43;;;;;;;;;;;;;;;23.67;66.92;101620.38;5037764;28;20401;-85
2023/09/29 09:22:13;;;;;;;;;;;;;;;23.67;67.14;101628.38;5009829;28;19964;-85
2023/09/29 09:24:38;;;;;;;;;;;;;;;23.66;67.10;101622.13;5041224;28;19984;-86
2023/09/29 09:27:04;;;;;;;;;;;;;;;23.63;66.91;101624.75;5035326;28;19951;-85
2023/09/29 09:29:30;;;;;;;;;;;;;;;23.61;66.34;101621.16;5021382;28;20045;-86
2023/09/29 09:31:56;;;;;;;;;;;;;;;23.60;66.51;101627.41;5019982;28;19940;-86
2023/09/29 09:34:31;;;;;;;;;;;;;;;23.63;67.02;101629.19;5041407;28;19921;-85
2023/09/29 09:36:56;;;;;;;;;;;;;;;23.65;66.72;101630.13;5034514;28;19975;-85
2023/09/29 09:39:22;;;;;;;;;;;;;;;23.64;66.59;101631.88;5031933;28;20298;-84
2023/09/29 09:41:52;;;;;;;;;;;;;;;23.65;66.74;101633.69;5020926;28;19948;-86
2023/09/29 09:44:19;;;;;;;;;;;;;;;23.68;66.73;101635.47;5011836;28;20441;-85
2023/09/29 09:46:48;;;;;;;;;;;;;;;23.68;66.85;101644.38;5014193;28;19913;-85
2023/09/29 09:49:14;;;;;;;;;;;;;;;23.70;66.83;101639.97;5046087;28;19922;-84
2023/09/29 09:51:41;;;;;;;;;;;;;;;23.67;66.75;101641.72;5027494;28;20382;-85
2023/09/29 09:54:08;;;;;;;;;;;;;;;23.68;67.00;101644.38;5008370;28;19939;-86
2023/09/29 09:56:45;;;;;;;;;;;;;;;23.70;66.90;101641.75;5005444;28;20059;-84
2023/09/29 09:59:12;;;;;;;;;;;;;;;23.68;67.20;101635.47;5023571;28;19913;-86
2023/09/29 10:01:39;;;;;;;;;;;;;;;23.67;67.33;101636.38;5031892;28;19972;-85
2023/09/29 10:04:05;;;;;;;;;;;;;;;23.67;67.14;101639.03;5021517;28;20283;-85
2023/09/29 10:06:31;;;;;;;;;;;;;;;23.68;67.07;101632.81;5030061;28;20318;-85
2023/09/29 10:09:00;;;;;;;;;;;;;;;23.72;67.16;101630.22;5012624;28;19913;-85
2023/09/29 10:11:29;;;;;;;;;;;;;;;23.68;67.14;101631.03;5018539;28;19921;-85
2023/09/29 10:14:06;;;;;;;;;;;;;;;23.73;67.33;101633.78;5010447;28;20307;-85
2023/09/29 10:16:31;;;;;;;;;;;;;;;23.73;67.29;101639.13;5030532;28;19987;-84
2023/09/29 10:19:01;;;;;;;;;;;;;;;23.85;66.84;101633.97;5015649;28;20470;-86
2023/09/29 10:21:33;;;;;;;;;;;;;;;23.79;67.12;101628.53;5022641;28;19917;-85
2023/09/29 10:24:00;;;;;;;;;;;;;;;23.77;67.04;101625.00;5028695;28;19948;-83
2023/09/29 10:26:25;;;;;;;;;;;;;;;23.75;67.20;101624.94;5027889;28;19934;-83
2023/09/29 10:29:00;;;;;;;;;;;;;;;23.74;67.02;101619.56;5030610;28;19916;-83
2023/09/29 10:31:27;;;;;;;;;;;;;;;23.69;67.08;101619.50;5027675;28;19928;-83
2023/09/29 10:33:56;;;;;;;;;;;;;;;23.70;66.96;101620.41;5031705;28;19917;-83
2023/09/29 10:36:28;;;;;;;;;;;;;;;23.76;67.21;101616.06;5027510;28;19921;-84
2023/09/29 10:38:57;;;;;;;;;;;;;;;23.75;66.76;101616.03;5021503;28;19921;-83
2023/09/29 10:41:23;;;;;;;;;;;;;;;23.77;66.15;101615.22;5026056;28;19917;-83
2023/09/29 10:43:49;;;;;;;;;;;;;;;23.77;66.39;101604.53;5032079;28;19999;-82
2023/09/29 10:46:20;;;;;;;;;;;;;;;23.78;66.18;101611.66;5029692;28;20501;-82
2023/09/29 10:48:55;;;;;;;;;;;;;;;23.78;66.52;101597.44;5004710;28;20012;-83
2023/09/29 10:51:27;;;;;;;;;;;;;;;23.81;66.26;101599.22;5025458;28;20023;-82
2023/09/29 10:53:53;;;;;;;;;;;;;;;23.81;66.05;101591.22;5028826;28;20319;-83
2023/09/29 10:56:23;;;;;;;;;;;;;;;23.91;64.90;101593.16;5029668;28;20460;-83
2023/09/29 10:58:54;;;;;;;;;;;;;;;23.94;64.90;101594.09;5014240;28;19920;-83
2023/09/29 11:01:33;;;;;;;;;;;;;;;23.86;65.42;101590.44;5016628;28;20410;-81
2023/09/29 11:04:02;;;;;;;;;;;;;;;23.86;65.75;101584.22;5025808;28;19917;-82
2023/09/29 11:06:28;;;;;;;;;;;;;;;23.90;65.85;101578.91;5030837;28;19917;-82
2023/09/29 11:08:58;;;;;;;;;;;;;;;24.01;65.30;101584.38;5035661;28;19920;-82
2023/09/29 11:11:36;;;;;;;;;;;;;;;23.93;65.73;101586.94;5011688;28;19956;-82
2023/09/29 11:14:04;;;;;;;;;;;;;;;23.89;65.97;101582.44;5012511;28;19944;-83
2023/09/29 11:16:31;;;;;;;;;;;;;;;23.93;66.30;101575.38;5022050;28;19921;-82
2023/09/29 11:19:05;;;;;;;;;;;;;;;23.93;66.10;101578.94;5020823;28;20011;-83
2023/09/29 11:21:32;;;;;;;;;;;;;;;23.94;66.09;101566.53;5025728;28;20408;-83
2023/09/29 11:24:02;;;;;;;;;;;;;;;23.97;65.98;101567.44;5022578;28;19968;-83
2023/09/29 11:26:28;;;;;;;;;;;;;;;23.93;66.43;101562.94;4997902;28;20388;-82
2023/09/29 11:28:53;;;;;;;;;;;;;;;23.89;66.44;101553.09;5031738;28;19913;-83
2023/09/29 11:31:20;;;;;;;;;;;;;;;23.98;66.71;101555.91;5022177;28;19974;-83
2023/09/29 11:33:46;;;;;;;;;;;;;;;24.15;65.83;101557.81;5012816;28;20008;-83
2023/09/29 11:36:15;;;;;;;;;;;;;;;24.12;66.31;101555.16;5028423;28;19917;-83
2023/09/29 11:38:40;;;;;;;;;;;;;;;24.22;65.83;101545.47;5013346;28;19917;-83
2023/09/29 11:41:06;;;;;;;;;;;;;;;24.18;65.95;101549.88;5029222;28;19917;-83
2023/09/29 11:43:34;;;;;;;;;;;;;;;24.16;65.65;101543.63;5030932;28;19921;-82
2023/09/29 11:46:00;;;;;;;;;;;;;;;24.11;65.77;101543.59;5020975;28;19914;-83
2023/09/29 11:48:25;;;;;;;;;;;;;;;24.14;65.48;101540.94;5026750;28;19913;-83
2023/09/29 11:50:53;;;;;;;;;;;;;;;24.17;65.79;101538.31;4997079;28;19928;-84
2023/09/29 11:53:21;;;;;;;;;;;;;;;24.21;65.38;101539.22;5009532;28;20209;-84
2023/09/29 11:55:46;;;;;;;;;;;;;;;24.20;65.75;101533.88;5013040;28;19988;-84
2023/09/29 11:58:12;;;;;;;;;;;;;;;24.25;65.88;101534.81;5014738;28;20008;-83
2023/09/29 12:00:39;;;;;;;;;;;;;;;24.27;65.82;101533.06;5013296;28;19913;-83
2023/09/29 12:03:06;;;;;;;;;;;;;;;24.35;66.09;101529.56;5001590;28;19914;-83
2023/09/29 12:05:32;;;;;;;;;;;;;;;24.29;66.61;101525.97;5029618;28;19913;-84
2023/09/29 12:07:57;;;;;;;;;;;;;;;24.31;66.26;101521.53;5033856;28;20294;-84
2023/09/29 12:10:23;;;;;;;;;;;;;;;24.28;66.48;101524.19;5014048;28;19990;-84
2023/09/29 12:12:48;;;;;;;;;;;;;;;24.27;66.54;101523.25;5013041;28;19917;-84
2023/09/29 12:15:15;;;;;;;;;;;;;;;24.25;66.35;101519.69;4999751;28;19922;-83
2023/09/29 12:17:41;;;;;;;;;;;;;;;24.18;66.26;101520.53;5012146;28;19948;-83
2023/09/29 12:20:09;;;;;;;;;;;;;;;24.24;66.11;101520.56;5025801;28;19960;-82
2023/09/29 12:22:35;;;;;;;;;;;;;;;24.27;65.99;101517.94;5030628;28;19952;-82
2023/09/29 12:25:00;;;;;;;;;;;;;;;24.31;66.07;101517.06;5025580;28;19959;-82
2023/09/29 12:27:26;;;;;;;;;;;;;;;24.34;66.39;101508.19;5030553;28;19921;-82
2023/09/29 12:29:51;;;;;;;;;;;;;;;24.27;66.47;101511.69;5010944;28;19990;-82
2023/09/29 12:32:16;;;;;;;;;;;;;;;24.29;66.07;101508.16;5027924;28;19921;-82
2023/09/29 12:34:43;;;;;;;;;;;;;;;24.33;66.23;101501.09;5028223;28;19921;-83